sensor_id;sensor_type;location;lat;lon;timestamp;P1;durP1;ratioP1;P2;durP2;ratioP2
13704;SDS011;6924;52.122;9.952;2024-03-08T00:00:03;20.17;;;12.53;;
13704;SDS011;6924;52.122;9.952;2024-03-08T00:02:36;15.63;;;12.57;;
13704;SDS011;6924;52.122;9.952;2024-03-08T00:05:03;23.00;;;13.07;;
13704;SDS011;6924;52.122;9.952;2024-03-08T00:07:29;14.40;;;11.90;;
13704;SDS011;6924;52.122;9.952;2024-03-08T00:09:56;18.97;;;12.67;;
13704;SDS011;6924;52.122;9.952;2024-03-08T00:12:22;22.43;;;14.33;;
13704;SDS011;6924;52.122;9.952;2024-03-08T00:14:50;15.70;;;12.13;;
13704;SDS011;6924;52.122;9.952;2024-03-08T00:17:17;20.10;;;12.53;;
13704;SDS011;6924;52.122;9.952;2024-03-08T00:19:45;18.43;;;12.93;;
13704;SDS011;6924;52.122;9.952;2024-03-08T00:22:11;17.90;;;12.13;;
13704;SDS011;6924;52.122;9.952;2024-03-08T00:24:37;19.07;;;12.40;;
13704;SDS011;6924;52.122;9.952;2024-03-08T00:27:04;19.17;;;13.87;;
13704;SDS011;6924;52.122;9.952;2024-03-08T00:29:31;18.70;;;13.90;;
13704;SDS011;6924;52.122;9.952;2024-03-08T00:31:57;25.53;;;14.13;;
13704;SDS011;6924;52.122;9.952;2024-03-08T00:34:23;19.20;;;14.13;;
13704;SDS011;6924;52.122;9.952;2024-03-08T00:36:51;18.60;;;12.90;;
13704;SDS011;6924;52.122;9.952;2024-03-08T00:39:18;22.43;;;14.47;;
13704;SDS011;6924;52.122;9.952;2024-03-08T00:41:44;20.67;;;14.47;;
13704;SDS011;6924;52.122;9.952;2024-03-08T00:44:11;15.90;;;12.53;;
13704;SDS011;6924;52.122;9.952;2024-03-08T00:46:37;17.87;;;12.80;;
13704;SDS011;6924;52.122;9.952;2024-03-08T00:49:04;22.87;;;13.40;;
13704;SDS011;6924;52.122;9.952;2024-03-08T00:51:31;23.57;;;14.10;;
13704;SDS011;6924;52.122;9.952;2024-03-08T00:53:59;17.87;;;12.60;;
13704;SDS011;6924;52.122;9.952;2024-03-08T00:56:25;20.67;;;13.90;;
13704;SDS011;6924;52.122;9.952;2024-03-08T00:58:52;22.50;;;13.93;;
13704;SDS011;6924;52.122;9.952;2024-03-08T01:01:19;21.40;;;13.17;;
13704;SDS011;6924;52.122;9.952;2024-03-08T01:03:45;17.73;;;12.07;;
13704;SDS011;6924;52.122;9.952;2024-03-08T01:06:11;18.03;;;13.13;;
13704;SDS011;6924;52.122;9.952;2024-03-08T01:08:38;16.27;;;12.93;;
13704;SDS011;6924;52.122;9.952;2024-03-08T01:11:08;16.93;;;12.47;;
13704;SDS011;6924;52.122;9.952;2024-03-08T01:13:36;19.03;;;13.27;;
13704;SDS011;6924;52.122;9.952;2024-03-08T01:16:01;19.53;;;12.63;;
13704;SDS011;6924;52.122;9.952;2024-03-08T01:18:28;15.73;;;12.60;;
13704;SDS011;6924;52.122;9.952;2024-03-08T01:20:55;19.80;;;13.10;;
13704;SDS011;6924;52.122;9.952;2024-03-08T01:23:22;16.73;;;12.57;;
13704;SDS011;6924;52.122;9.952;2024-03-08T01:25:49;17.47;;;13.00;;
13704;SDS011;6924;52.122;9.952;2024-03-08T01:28:23;18.73;;;12.57;;
13704;SDS011;6924;52.122;9.952;2024-03-08T01:30:49;20.20;;;12.57;;
13704;SDS011;6924;52.122;9.952;2024-03-08T01:33:20;19.40;;;14.10;;
13704;SDS011;6924;52.122;9.952;2024-03-08T01:35:47;18.47;;;13.53;;
13704;SDS011;6924;52.122;9.952;2024-03-08T01:38:14;18.10;;;12.97;;
13704;SDS011;6924;52.122;9.952;2024-03-08T01:40:40;25.30;;;13.57;;
13704;SDS011;6924;52.122;9.952;2024-03-08T01:43:19;23.10;;;13.87;;
13704;SDS011;6924;52.122;9.952;2024-03-08T01:45:47;23.52;;;17.48;;
13704;SDS011;6924;52.122;9.952;2024-03-08T01:48:14;19.00;;;14.47;;
13704;SDS011;6924;52.122;9.952;2024-03-08T01:50:42;17.87;;;13.17;;
13704;SDS011;6924;52.122;9.952;2024-03-08T01:53:09;19.20;;;13.30;;
13704;SDS011;6924;52.122;9.952;2024-03-08T01:55:36;15.97;;;13.20;;
13704;SDS011;6924;52.122;9.952;2024-03-08T01:58:04;20.87;;;13.07;;
13704;SDS011;6924;52.122;9.952;2024-03-08T02:00:31;22.33;;;14.97;;
13704;SDS011;6924;52.122;9.952;2024-03-08T02:03:00;24.20;;;14.80;;
13704;SDS011;6924;52.122;9.952;2024-03-08T02:05:27;23.93;;;14.00;;
13704;SDS011;6924;52.122;9.952;2024-03-08T02:07:54;20.43;;;13.83;;
13704;SDS011;6924;52.122;9.952;2024-03-08T02:10:21;21.97;;;13.70;;
13704;SDS011;6924;52.122;9.952;2024-03-08T02:12:48;19.90;;;14.60;;
13704;SDS011;6924;52.122;9.952;2024-03-08T02:15:14;20.80;;;13.33;;
13704;SDS011;6924;52.122;9.952;2024-03-08T02:17:41;17.80;;;12.47;;
13704;SDS011;6924;52.122;9.952;2024-03-08T02:20:10;23.17;;;14.70;;
13704;SDS011;6924;52.122;9.952;2024-03-08T02:22:39;24.38;;;17.55;;
13704;SDS011;6924;52.122;9.952;2024-03-08T02:25:06;22.80;;;14.57;;
13704;SDS011;6924;52.122;9.952;2024-03-08T02:27:34;22.40;;;13.97;;
13704;SDS011;6924;52.122;9.952;2024-03-08T02:30:00;21.17;;;14.57;;
13704;SDS011;6924;52.122;9.952;2024-03-08T02:32:26;21.50;;;13.33;;
13704;SDS011;6924;52.122;9.952;2024-03-08T02:34:56;27.17;;;13.67;;
13704;SDS011;6924;52.122;9.952;2024-03-08T02:37:24;27.40;;;13.20;;
13704;SDS011;6924;52.122;9.952;2024-03-08T02:39:52;16.73;;;12.83;;
13704;SDS011;6924;52.122;9.952;2024-03-08T02:42:18;22.73;;;14.07;;
13704;SDS011;6924;52.122;9.952;2024-03-08T02:44:45;19.37;;;12.73;;
13704;SDS011;6924;52.122;9.952;2024-03-08T02:47:11;23.60;;;14.67;;
13704;SDS011;6924;52.122;9.952;2024-03-08T02:49:38;18.37;;;13.77;;
13704;SDS011;6924;52.122;9.952;2024-03-08T02:52:04;29.47;;;14.80;;
13704;SDS011;6924;52.122;9.952;2024-03-08T02:54:32;25.33;;;14.30;;
13704;SDS011;6924;52.122;9.952;2024-03-08T02:57:01;25.93;;;13.87;;
13704;SDS011;6924;52.122;9.952;2024-03-08T02:59:29;21.17;;;15.35;;
13704;SDS011;6924;52.122;9.952;2024-03-08T03:01:55;24.97;;;14.87;;
13704;SDS011;6924;52.122;9.952;2024-03-08T03:04:21;23.50;;;14.53;;
13704;SDS011;6924;52.122;9.952;2024-03-08T03:06:48;28.03;;;14.90;;
13704;SDS011;6924;52.122;9.952;2024-03-08T03:09:14;27.50;;;14.93;;
13704;SDS011;6924;52.122;9.952;2024-03-08T03:11:43;24.27;;;14.90;;
13704;SDS011;6924;52.122;9.952;2024-03-08T03:14:12;19.63;;;13.40;;
13704;SDS011;6924;52.122;9.952;2024-03-08T03:16:38;19.40;;;13.10;;
13704;SDS011;6924;52.122;9.952;2024-03-08T03:19:05;23.90;;;15.27;;
13704;SDS011;6924;52.122;9.952;2024-03-08T03:21:32;18.50;;;13.57;;
13704;SDS011;6924;52.122;9.952;2024-03-08T03:24:00;21.70;;;14.40;;
13704;SDS011;6924;52.122;9.952;2024-03-08T03:26:29;20.27;;;13.37;;
13704;SDS011;6924;52.122;9.952;2024-03-08T03:28:56;23.90;;;15.30;;
13704;SDS011;6924;52.122;9.952;2024-03-08T03:31:24;24.30;;;14.30;;
13704;SDS011;6924;52.122;9.952;2024-03-08T03:33:51;25.90;;;13.57;;
13704;SDS011;6924;52.122;9.952;2024-03-08T03:36:17;23.33;;;14.43;;
13704;SDS011;6924;52.122;9.952;2024-03-08T03:38:44;18.43;;;13.33;;
13704;SDS011;6924;52.122;9.952;2024-03-08T03:41:10;21.87;;;14.00;;
13704;SDS011;6924;52.122;9.952;2024-03-08T03:43:37;27.47;;;15.93;;
13704;SDS011;6924;52.122;9.952;2024-03-08T03:46:05;20.30;;;14.73;;
13704;SDS011;6924;52.122;9.952;2024-03-08T03:48:33;17.33;;;12.83;;
13704;SDS011;6924;52.122;9.952;2024-03-08T03:50:59;24.00;;;14.60;;
13704;SDS011;6924;52.122;9.952;2024-03-08T03:53:26;28.83;;;15.27;;
13704;SDS011;6924;52.122;9.952;2024-03-08T03:55:52;25.20;;;14.70;;
13704;SDS011;6924;52.122;9.952;2024-03-08T03:58:19;26.83;;;14.70;;
13704;SDS011;6924;52.122;9.952;2024-03-08T04:00:47;25.00;;;14.60;;
13704;SDS011;6924;52.122;9.952;2024-03-08T04:03:13;20.60;;;14.73;;
13704;SDS011;6924;52.122;9.952;2024-03-08T04:05:43;23.70;;;14.43;;
13704;SDS011;6924;52.122;9.952;2024-03-08T04:08:10;23.73;;;14.20;;
13704;SDS011;6924;52.122;9.952;2024-03-08T04:10:36;31.27;;;15.93;;
13704;SDS011;6924;52.122;9.952;2024-03-08T04:13:03;21.90;;;14.77;;
13704;SDS011;6924;52.122;9.952;2024-03-08T04:15:29;23.93;;;14.70;;
13704;SDS011;6924;52.122;9.952;2024-03-08T04:17:56;20.37;;;14.07;;
13704;SDS011;6924;52.122;9.952;2024-03-08T04:20:22;24.40;;;14.73;;
13704;SDS011;6924;52.122;9.952;2024-03-08T04:22:50;27.73;;;15.10;;
13704;SDS011;6924;52.122;9.952;2024-03-08T04:25:17;31.20;;;15.50;;
13704;SDS011;6924;52.122;9.952;2024-03-08T04:27:43;25.30;;;14.67;;
13704;SDS011;6924;52.122;9.952;2024-03-08T04:30:11;23.60;;;15.83;;
13704;SDS011;6924;52.122;9.952;2024-03-08T04:32:37;22.13;;;15.20;;
13704;SDS011;6924;52.122;9.952;2024-03-08T04:35:04;24.07;;;14.97;;
13704;SDS011;6924;52.122;9.952;2024-03-08T04:37:31;23.10;;;14.07;;
13704;SDS011;6924;52.122;9.952;2024-03-08T04:39:58;33.53;;;15.83;;
13704;SDS011;6924;52.122;9.952;2024-03-08T04:42:25;30.43;;;15.80;;
13704;SDS011;6924;52.122;9.952;2024-03-08T04:44:53;30.87;;;17.67;;
13704;SDS011;6924;52.122;9.952;2024-03-08T04:47:20;27.37;;;16.17;;
13704;SDS011;6924;52.122;9.952;2024-03-08T04:49:46;34.70;;;18.63;;
13704;SDS011;6924;52.122;9.952;2024-03-08T04:52:13;31.87;;;17.97;;
13704;SDS011;6924;52.122;9.952;2024-03-08T04:54:39;40.65;;;23.58;;
13704;SDS011;6924;52.122;9.952;2024-03-08T04:57:07;29.23;;;17.97;;
13704;SDS011;6924;52.122;9.952;2024-03-08T04:59:33;40.23;;;17.73;;
13704;SDS011;6924;52.122;9.952;2024-03-08T05:01:59;32.90;;;18.17;;
13704;SDS011;6924;52.122;9.952;2024-03-08T05:04:26;31.33;;;18.40;;
13704;SDS011;6924;52.122;9.952;2024-03-08T05:06:54;31.97;;;19.40;;
13704;SDS011;6924;52.122;9.952;2024-03-08T05:09:20;30.40;;;16.80;;
13704;SDS011;6924;52.122;9.952;2024-03-08T05:11:48;30.93;;;18.93;;
13704;SDS011;6924;52.122;9.952;2024-03-08T05:14:16;30.70;;;18.00;;
13704;SDS011;6924;52.122;9.952;2024-03-08T05:16:45;44.37;;;19.80;;
13704;SDS011;6924;52.122;9.952;2024-03-08T05:19:13;30.70;;;18.03;;
13704;SDS011;6924;52.122;9.952;2024-03-08T05:21:41;33.80;;;18.00;;
13704;SDS011;6924;52.122;9.952;2024-03-08T05:24:08;37.07;;;18.33;;
13704;SDS011;6924;52.122;9.952;2024-03-08T05:26:35;28.33;;;18.03;;
13704;SDS011;6924;52.122;9.952;2024-03-08T05:29:02;36.03;;;19.03;;
13704;SDS011;6924;52.122;9.952;2024-03-08T05:31:30;33.70;;;18.87;;
13704;SDS011;6924;52.122;9.952;2024-03-08T05:34:02;31.13;;;17.47;;
13704;SDS011;6924;52.122;9.952;2024-03-08T05:36:28;32.07;;;18.50;;
13704;SDS011;6924;52.122;9.952;2024-03-08T05:38:55;34.63;;;19.23;;
13704;SDS011;6924;52.122;9.952;2024-03-08T05:41:21;34.10;;;18.47;;
13704;SDS011;6924;52.122;9.952;2024-03-08T05:43:47;37.70;;;19.77;;
13704;SDS011;6924;52.122;9.952;2024-03-08T05:46:15;34.83;;;19.30;;
13704;SDS011;6924;52.122;9.952;2024-03-08T05:48:44;28.53;;;18.53;;
13704;SDS011;6924;52.122;9.952;2024-03-08T05:51:11;35.53;;;19.17;;
13704;SDS011;6924;52.122;9.952;2024-03-08T05:53:38;31.30;;;17.77;;
13704;SDS011;6924;52.122;9.952;2024-03-08T05:56:04;36.43;;;18.87;;
13704;SDS011;6924;52.122;9.952;2024-03-08T05:58:31;28.87;;;17.43;;
13704;SDS011;6924;52.122;9.952;2024-03-08T06:00:58;35.80;;;19.97;;
13704;SDS011;6924;52.122;9.952;2024-03-08T06:03:24;30.37;;;17.17;;
13704;SDS011;6924;52.122;9.952;2024-03-08T06:05:52;31.80;;;18.13;;
13704;SDS011;6924;52.122;9.952;2024-03-08T06:08:19;31.83;;;18.43;;
13704;SDS011;6924;52.122;9.952;2024-03-08T06:10:45;28.03;;;17.87;;
13704;SDS011;6924;52.122;9.952;2024-03-08T06:13:14;36.72;;;24.90;;
13704;SDS011;6924;52.122;9.952;2024-03-08T06:15:40;35.93;;;19.20;;
13704;SDS011;6924;52.122;9.952;2024-03-08T06:18:07;30.20;;;18.53;;
13704;SDS011;6924;52.122;9.952;2024-03-08T06:20:35;26.90;;;18.00;;
13704;SDS011;6924;52.122;9.952;2024-03-08T06:23:03;28.30;;;17.83;;
13704;SDS011;6924;52.122;9.952;2024-03-08T06:25:30;30.10;;;18.57;;
13704;SDS011;6924;52.122;9.952;2024-03-08T06:27:56;31.40;;;18.97;;
13704;SDS011;6924;52.122;9.952;2024-03-08T06:30:22;34.10;;;18.97;;
13704;SDS011;6924;52.122;9.952;2024-03-08T06:32:49;32.17;;;19.50;;
13704;SDS011;6924;52.122;9.952;2024-03-08T06:35:15;31.30;;;18.87;;
13704;SDS011;6924;52.122;9.952;2024-03-08T06:37:41;31.60;;;19.20;;
13704;SDS011;6924;52.122;9.952;2024-03-08T06:40:11;35.13;;;20.47;;
13704;SDS011;6924;52.122;9.952;2024-03-08T06:42:39;40.03;;;19.57;;
13704;SDS011;6924;52.122;9.952;2024-03-08T06:45:06;40.37;;;21.13;;
13704;SDS011;6924;52.122;9.952;2024-03-08T06:47:34;35.00;;;19.67;;
13704;SDS011;6924;52.122;9.952;2024-03-08T06:50:00;38.97;;;18.93;;
13704;SDS011;6924;52.122;9.952;2024-03-08T06:52:27;36.47;;;19.80;;
13704;SDS011;6924;52.122;9.952;2024-03-08T06:54:53;40.17;;;21.13;;
13704;SDS011;6924;52.122;9.952;2024-03-08T06:57:21;37.13;;;19.40;;
13704;SDS011;6924;52.122;9.952;2024-03-08T06:59:47;28.90;;;19.53;;
13704;SDS011;6924;52.122;9.952;2024-03-08T07:02:14;34.17;;;19.43;;
13704;SDS011;6924;52.122;9.952;2024-03-08T07:04:40;38.17;;;19.83;;
13704;SDS011;6924;52.122;9.952;2024-03-08T07:07:06;29.57;;;19.73;;
13704;SDS011;6924;52.122;9.952;2024-03-08T07:09:34;30.67;;;18.87;;
13704;SDS011;6924;52.122;9.952;2024-03-08T07:12:00;33.97;;;18.93;;
13704;SDS011;6924;52.122;9.952;2024-03-08T07:14:28;37.27;;;20.73;;
13704;SDS011;6924;52.122;9.952;2024-03-08T07:16:55;33.83;;;18.90;;
13704;SDS011;6924;52.122;9.952;2024-03-08T07:19:22;33.63;;;20.23;;
13704;SDS011;6924;52.122;9.952;2024-03-08T07:21:49;37.33;;;19.03;;
13704;SDS011;6924;52.122;9.952;2024-03-08T07:24:15;36.97;;;20.70;;
13704;SDS011;6924;52.122;9.952;2024-03-08T07:27:02;41.27;;;19.07;;
13704;SDS011;6924;52.122;9.952;2024-03-08T07:29:31;34.97;;;20.73;;
13704;SDS011;6924;52.122;9.952;2024-03-08T07:31:58;35.43;;;19.50;;
13704;SDS011;6924;52.122;9.952;2024-03-08T07:34:37;37.93;;;20.57;;
13704;SDS011;6924;52.122;9.952;2024-03-08T07:37:04;38.80;;;20.97;;
13704;SDS011;6924;52.122;9.952;2024-03-08T07:39:35;29.97;;;17.53;;
13704;SDS011;6924;52.122;9.952;2024-03-08T07:42:02;45.47;;;21.20;;
13704;SDS011;6924;52.122;9.952;2024-03-08T07:44:29;33.30;;;19.03;;
13704;SDS011;6924;52.122;9.952;2024-03-08T07:46:58;37.73;;;21.07;;
13704;SDS011;6924;52.122;9.952;2024-03-08T07:49:24;36.80;;;19.07;;
13704;SDS011;6924;52.122;9.952;2024-03-08T07:51:51;35.37;;;18.33;;
13704;SDS011;6924;52.122;9.952;2024-03-08T07:54:17;31.77;;;18.43;;
13704;SDS011;6924;52.122;9.952;2024-03-08T07:56:44;33.03;;;18.43;;
13704;SDS011;6924;52.122;9.952;2024-03-08T07:59:10;42.43;;;20.27;;
13704;SDS011;6924;52.122;9.952;2024-03-08T08:01:37;36.13;;;19.80;;
13704;SDS011;6924;52.122;9.952;2024-03-08T08:04:04;35.03;;;18.73;;
13704;SDS011;6924;52.122;9.952;2024-03-08T08:06:31;33.57;;;20.27;;
13704;SDS011;6924;52.122;9.952;2024-03-08T08:08:58;33.50;;;18.87;;
13704;SDS011;6924;52.122;9.952;2024-03-08T08:11:25;33.77;;;19.77;;
13704;SDS011;6924;52.122;9.952;2024-03-08T08:13:52;33.88;;;22.10;;
13704;SDS011;6924;52.122;9.952;2024-03-08T08:16:19;30.43;;;18.77;;
13704;SDS011;6924;52.122;9.952;2024-03-08T08:18:46;34.43;;;18.87;;
13704;SDS011;6924;52.122;9.952;2024-03-08T08:21:14;29.20;;;18.10;;
13704;SDS011;6924;52.122;9.952;2024-03-08T08:23:41;29.10;;;17.90;;
13704;SDS011;6924;52.122;9.952;2024-03-08T08:26:07;27.03;;;17.67;;
13704;SDS011;6924;52.122;9.952;2024-03-08T08:28:36;30.20;;;18.57;;
13704;SDS011;6924;52.122;9.952;2024-03-08T08:31:03;34.17;;;19.33;;
13704;SDS011;6924;52.122;9.952;2024-03-08T08:33:29;31.23;;;19.23;;
13704;SDS011;6924;52.122;9.952;2024-03-08T08:35:56;31.70;;;18.73;;
13704;SDS011;6924;52.122;9.952;2024-03-08T08:38:24;31.00;;;21.87;;
13704;SDS011;6924;52.122;9.952;2024-03-08T08:40:51;31.23;;;18.27;;
13704;SDS011;6924;52.122;9.952;2024-03-08T08:43:17;22.27;;;15.50;;
13704;SDS011;6924;52.122;9.952;2024-03-08T08:45:46;25.90;;;18.03;;
13704;SDS011;6924;52.122;9.952;2024-03-08T08:48:15;26.97;;;17.97;;
13704;SDS011;6924;52.122;9.952;2024-03-08T08:50:41;26.97;;;16.23;;
13704;SDS011;6924;52.122;9.952;2024-03-08T08:53:09;25.45;;;17.90;;
13704;SDS011;6924;52.122;9.952;2024-03-08T08:55:37;30.47;;;18.93;;
13704;SDS011;6924;52.122;9.952;2024-03-08T08:58:05;27.60;;;17.43;;
13704;SDS011;6924;52.122;9.952;2024-03-08T09:00:32;34.43;;;17.43;;
13704;SDS011;6924;52.122;9.952;2024-03-08T09:02:59;25.17;;;17.03;;
13704;SDS011;6924;52.122;9.952;2024-03-08T09:05:27;27.93;;;17.00;;
13704;SDS011;6924;52.122;9.952;2024-03-08T09:07:53;27.20;;;17.27;;
13704;SDS011;6924;52.122;9.952;2024-03-08T09:10:20;21.23;;;16.43;;
13704;SDS011;6924;52.122;9.952;2024-03-08T09:12:47;25.97;;;16.40;;
13704;SDS011;6924;52.122;9.952;2024-03-08T09:15:14;26.87;;;16.67;;
13704;SDS011;6924;52.122;9.952;2024-03-08T09:17:45;25.97;;;17.33;;
13704;SDS011;6924;52.122;9.952;2024-03-08T09:20:13;28.60;;;17.73;;
13704;SDS011;6924;52.122;9.952;2024-03-08T09:22:40;23.57;;;16.40;;
13704;SDS011;6924;52.122;9.952;2024-03-08T09:25:06;26.67;;;17.37;;
13704;SDS011;6924;52.122;9.952;2024-03-08T09:27:34;26.27;;;15.40;;
13704;SDS011;6924;52.122;9.952;2024-03-08T09:30:02;24.20;;;15.87;;
13704;SDS011;6924;52.122;9.952;2024-03-08T09:32:29;25.37;;;15.90;;
13704;SDS011;6924;52.122;9.952;2024-03-08T09:34:55;24.97;;;15.97;;
13704;SDS011;6924;52.122;9.952;2024-03-08T09:37:22;21.83;;;16.23;;
13704;SDS011;6924;52.122;9.952;2024-03-08T09:39:48;25.17;;;16.00;;
13704;SDS011;6924;52.122;9.952;2024-03-08T09:42:15;26.67;;;17.00;;
13704;SDS011;6924;52.122;9.952;2024-03-08T09:44:44;22.33;;;16.00;;
13704;SDS011;6924;52.122;9.952;2024-03-08T09:47:12;22.27;;;16.83;;
13704;SDS011;6924;52.122;9.952;2024-03-08T09:49:40;19.47;;;14.77;;
13704;SDS011;6924;52.122;9.952;2024-03-08T09:52:06;21.27;;;15.70;;
13704;SDS011;6924;52.122;9.952;2024-03-08T09:54:33;19.17;;;14.90;;
13704;SDS011;6924;52.122;9.952;2024-03-08T09:57:00;26.17;;;15.23;;
13704;SDS011;6924;52.122;9.952;2024-03-08T09:59:28;23.33;;;15.93;;
13704;SDS011;6924;52.122;9.952;2024-03-08T10:02:14;22.53;;;15.83;;
13704;SDS011;6924;52.122;9.952;2024-03-08T10:04:41;22.03;;;15.97;;
13704;SDS011;6924;52.122;9.952;2024-03-08T10:07:08;20.27;;;15.67;;
13704;SDS011;6924;52.122;9.952;2024-03-08T10:09:34;21.80;;;14.63;;
13704;SDS011;6924;52.122;9.952;2024-03-08T10:12:01;18.90;;;14.67;;
13704;SDS011;6924;52.122;9.952;2024-03-08T10:14:28;17.30;;;14.47;;
13704;SDS011;6924;52.122;9.952;2024-03-08T10:16:54;19.97;;;14.23;;
13704;SDS011;6924;52.122;9.952;2024-03-08T10:19:26;19.93;;;15.33;;
13704;SDS011;6924;52.122;9.952;2024-03-08T10:21:52;18.77;;;15.73;;
13704;SDS011;6924;52.122;9.952;2024-03-08T10:24:21;20.97;;;15.10;;
13704;SDS011;6924;52.122;9.952;2024-03-08T10:26:48;17.27;;;14.43;;
13704;SDS011;6924;52.122;9.952;2024-03-08T10:29:17;17.33;;;15.10;;
13704;SDS011;6924;52.122;9.952;2024-03-08T10:31:44;22.37;;;14.57;;
13704;SDS011;6924;52.122;9.952;2024-03-08T10:34:11;18.07;;;14.50;;
13704;SDS011;6924;52.122;9.952;2024-03-08T10:36:39;20.47;;;13.23;;
13704;SDS011;6924;52.122;9.952;2024-03-08T10:39:06;22.37;;;14.70;;
13704;SDS011;6924;52.122;9.952;2024-03-08T10:41:44;21.13;;;16.10;;
13704;SDS011;6924;52.122;9.952;2024-03-08T10:44:18;16.70;;;12.97;;
13704;SDS011;6924;52.122;9.952;2024-03-08T10:47:00;17.63;;;14.17;;
13704;SDS011;6924;52.122;9.952;2024-03-08T10:49:30;18.40;;;16.23;;
13704;SDS011;6924;52.122;9.952;2024-03-08T10:52:01;17.23;;;14.87;;
13704;SDS011;6924;52.122;9.952;2024-03-08T10:54:29;18.00;;;15.07;;
13704;SDS011;6924;52.122;9.952;2024-03-08T10:56:57;16.93;;;14.73;;
13704;SDS011;6924;52.122;9.952;2024-03-08T10:59:26;18.63;;;14.57;;
13704;SDS011;6924;52.122;9.952;2024-03-08T11:01:53;22.10;;;15.57;;
13704;SDS011;6924;52.122;9.952;2024-03-08T11:04:19;19.97;;;15.17;;
13704;SDS011;6924;52.122;9.952;2024-03-08T11:06:48;17.53;;;15.10;;
13704;SDS011;6924;52.122;9.952;2024-03-08T11:09:31;16.47;;;14.63;;
13704;SDS011;6924;52.122;9.952;2024-03-08T11:14:50;18.63;;;14.53;;
13704;SDS011;6924;52.122;9.952;2024-03-08T11:17:20;17.07;;;13.47;;
13704;SDS011;6924;52.122;9.952;2024-03-08T11:19:47;20.60;;;14.43;;
13704;SDS011;6924;52.122;9.952;2024-03-08T11:22:20;18.63;;;14.43;;
13704;SDS011;6924;52.122;9.952;2024-03-08T11:24:51;19.77;;;15.17;;
13704;SDS011;6924;52.122;9.952;2024-03-08T11:27:17;19.03;;;15.17;;
13704;SDS011;6924;52.122;9.952;2024-03-08T11:29:45;18.30;;;15.27;;
13704;SDS011;6924;52.122;9.952;2024-03-08T11:32:33;18.97;;;15.27;;
13704;SDS011;6924;52.122;9.952;2024-03-08T11:35:01;17.93;;;15.83;;
13704;SDS011;6924;52.122;9.952;2024-03-08T11:37:32;18.00;;;15.33;;
13704;SDS011;6924;52.122;9.952;2024-03-08T11:40:01;19.67;;;15.23;;
13704;SDS011;6924;52.122;9.952;2024-03-08T11:42:30;21.97;;;16.43;;
13704;SDS011;6924;52.122;9.952;2024-03-08T11:44:56;19.63;;;15.63;;
13704;SDS011;6924;52.122;9.952;2024-03-08T11:47:23;18.93;;;15.73;;
13704;SDS011;6924;52.122;9.952;2024-03-08T11:49:51;17.17;;;15.37;;
13704;SDS011;6924;52.122;9.952;2024-03-08T11:52:18;22.03;;;15.90;;
13704;SDS011;6924;52.122;9.952;2024-03-08T11:54:47;19.23;;;15.40;;
13704;SDS011;6924;52.122;9.952;2024-03-08T11:57:18;20.83;;;16.33;;
13704;SDS011;6924;52.122;9.952;2024-03-08T11:59:49;16.17;;;14.03;;
13704;SDS011;6924;52.122;9.952;2024-03-08T12:02:16;18.33;;;14.30;;
13704;SDS011;6924;52.122;9.952;2024-03-08T12:04:44;21.63;;;16.00;;
13704;SDS011;6924;52.122;9.952;2024-03-08T12:07:11;20.67;;;16.10;;
13704;SDS011;6924;52.122;9.952;2024-03-08T12:09:39;20.07;;;15.10;;
13704;SDS011;6924;52.122;9.952;2024-03-08T12:12:11;24.07;;;15.27;;
13704;SDS011;6924;52.122;9.952;2024-03-08T12:14:39;18.47;;;15.10;;
13704;SDS011;6924;52.122;9.952;2024-03-08T12:17:09;21.10;;;15.17;;
13704;SDS011;6924;52.122;9.952;2024-03-08T12:19:36;20.97;;;15.37;;
13704;SDS011;6924;52.122;9.952;2024-03-08T12:22:07;16.90;;;14.87;;
13704;SDS011;6924;52.122;9.952;2024-03-08T12:24:35;16.80;;;14.40;;
13704;SDS011;6924;52.122;9.952;2024-03-08T12:27:17;20.80;;;14.73;;
13704;SDS011;6924;52.122;9.952;2024-03-08T12:29:45;18.00;;;14.60;;
13704;SDS011;6924;52.122;9.952;2024-03-08T12:32:12;25.37;;;14.63;;
13704;SDS011;6924;52.122;9.952;2024-03-08T12:34:38;29.87;;;16.07;;
13704;SDS011;6924;52.122;9.952;2024-03-08T12:37:05;19.40;;;16.47;;
13704;SDS011;6924;52.122;9.952;2024-03-08T12:39:34;20.17;;;14.23;;
13704;SDS011;6924;52.122;9.952;2024-03-08T12:42:02;21.40;;;15.17;;
13704;SDS011;6924;52.122;9.952;2024-03-08T12:44:29;18.53;;;15.73;;
13704;SDS011;6924;52.122;9.952;2024-03-08T12:46:56;18.00;;;15.13;;
13704;SDS011;6924;52.122;9.952;2024-03-08T12:49:23;25.77;;;15.93;;
13704;SDS011;6924;52.122;9.952;2024-03-08T12:51:51;22.60;;;15.80;;
13704;SDS011;6924;52.122;9.952;2024-03-08T12:54:18;22.33;;;16.03;;
13704;SDS011;6924;52.122;9.952;2024-03-08T12:56:48;20.10;;;14.97;;
13704;SDS011;6924;52.122;9.952;2024-03-08T12:59:16;20.90;;;16.10;;
13704;SDS011;6924;52.122;9.952;2024-03-08T13:01:43;18.60;;;15.27;;
13704;SDS011;6924;52.122;9.952;2024-03-08T13:04:10;19.27;;;14.57;;
13704;SDS011;6924;52.122;9.952;2024-03-08T13:06:37;20.67;;;15.50;;
13704;SDS011;6924;52.122;9.952;2024-03-08T13:09:03;24.03;;;16.33;;
13704;SDS011;6924;52.122;9.952;2024-03-08T13:11:30;20.90;;;16.37;;
13704;SDS011;6924;52.122;9.952;2024-03-08T13:14:02;18.50;;;14.07;;
13704;SDS011;6924;52.122;9.952;2024-03-08T13:16:30;18.40;;;15.60;;
13704;SDS011;6924;52.122;9.952;2024-03-08T13:18:56;21.50;;;15.93;;
13704;SDS011;6924;52.122;9.952;2024-03-08T13:21:24;21.67;;;15.43;;
13704;SDS011;6924;52.122;9.952;2024-03-08T13:23:51;21.13;;;16.57;;
13704;SDS011;6924;52.122;9.952;2024-03-08T13:26:18;22.27;;;15.80;;
13704;SDS011;6924;52.122;9.952;2024-03-08T13:28:45;18.97;;;15.43;;
13704;SDS011;6924;52.122;9.952;2024-03-08T13:31:14;23.10;;;16.90;;
13704;SDS011;6924;52.122;9.952;2024-03-08T13:33:42;17.30;;;14.40;;
13704;SDS011;6924;52.122;9.952;2024-03-08T13:36:11;15.20;;;13.70;;
13704;SDS011;6924;52.122;9.952;2024-03-08T13:38:43;23.77;;;15.90;;
13704;SDS011;6924;52.122;9.952;2024-03-08T13:41:09;18.50;;;15.30;;
13704;SDS011;6924;52.122;9.952;2024-03-08T13:43:39;19.47;;;15.13;;
13704;SDS011;6924;52.122;9.952;2024-03-08T13:46:05;20.47;;;14.33;;
13704;SDS011;6924;52.122;9.952;2024-03-08T13:48:32;21.43;;;16.27;;
13704;SDS011;6924;52.122;9.952;2024-03-08T13:50:58;20.73;;;14.33;;
13704;SDS011;6924;52.122;9.952;2024-03-08T13:53:25;16.63;;;13.73;;
13704;SDS011;6924;52.122;9.952;2024-03-08T13:55:53;25.40;;;15.67;;
13704;SDS011;6924;52.122;9.952;2024-03-08T13:58:19;18.07;;;14.77;;
13704;SDS011;6924;52.122;9.952;2024-03-08T14:00:46;18.93;;;15.93;;
13704;SDS011;6924;52.122;9.952;2024-03-08T14:03:12;20.13;;;14.87;;
13704;SDS011;6924;52.122;9.952;2024-03-08T14:05:39;20.33;;;15.43;;
13704;SDS011;6924;52.122;9.952;2024-03-08T14:08:06;18.47;;;14.50;;
13704;SDS011;6924;52.122;9.952;2024-03-08T14:10:33;20.60;;;15.20;;
13704;SDS011;6924;52.122;9.952;2024-03-08T14:13:01;17.97;;;14.13;;
13704;SDS011;6924;52.122;9.952;2024-03-08T14:15:27;24.17;;;15.03;;
13704;SDS011;6924;52.122;9.952;2024-03-08T14:17:55;21.50;;;15.93;;
13704;SDS011;6924;52.122;9.952;2024-03-08T14:20:22;21.13;;;15.97;;
13704;SDS011;6924;52.122;9.952;2024-03-08T14:22:50;23.00;;;16.23;;
13704;SDS011;6924;52.122;9.952;2024-03-08T14:25:17;22.40;;;15.73;;
13704;SDS011;6924;52.122;9.952;2024-03-08T14:27:43;21.73;;;16.43;;
13704;SDS011;6924;52.122;9.952;2024-03-08T14:30:12;20.60;;;15.63;;
13704;SDS011;6924;52.122;9.952;2024-03-08T14:32:53;21.30;;;16.90;;
13704;SDS011;6924;52.122;9.952;2024-03-08T14:35:19;20.73;;;15.43;;
13704;SDS011;6924;52.122;9.952;2024-03-08T14:37:46;23.33;;;17.47;;